ES-0134 weather

Aeródromo de Valdelaguna
Valdelaguna, Madrid, Spain

Public forecast

Using degrees Celsius for public forecast. Weather courtesy of forecast.io.

Closest aviation weather report (METAR) to Aeródromo de Valdelaguna

Report is more than 2 hours old.

Closest report is Getafe Air Base, 17.7 nm (32.8 km) WNW. Retrieved 2019/10/19 17:00 UTC (2 hours ago):

LEGT 191700Z 20005KT 170V230 9999 SCT028 BKN043 18/12 Q1007

Closest aviation forecast (TAF) to Aeródromo de Valdelaguna

Forecast is more than 12 hours old.

Closest forecast is Getafe Air Base, 17.7 nm (32.8 km) WNW. Retrieved 2018/03/28 12:33 UTC (2 years ago):

TAF LEGT 281100Z 2812/2824 24010KT CAVOK PROB40 TEMPO 2814/2818 27015G25KT TEMPO 2820/2824 28008KT